Enid, OK (73701)

4:43 AM CDT on May 20, 2018 (GMT -0500)
Hwy 412/81 | | Change Station

Elev 1243 ft 36.39 °N, 97.89 °W | Updated 5 seconds ago

Rain
Rain
61.3 °F
Feels Like 61.3 °F
N
0.0
Wind Variable Wind from SSW

Today
High -- | Low -- °F
--% Chance of Precip.
Yesterday
High -- | Low -- °F
Precip. -- in
Pressure 30.03 in
Visibility 10.0 miles
Clouds Scattered Clouds 2700 ft
Scattered Clouds 9000 ft
Overcast 11000 ft
Dew Point 58 °F
Humidity 91%
Rainfall 0.00 in
Snow Depth Not available.
6:21 AM 8:35 PM
Waxing Crescent, 30% visible
METAR KWDG 200935Z AUTO 25004KT 10SM -RA SCT027 SCT090 OVC110 17/16 A3003 RMK AO2 P0001
Pressure 30.03 in
Visibility 10.0 miles
Clouds Scattered Clouds 2700 ft
Scattered Clouds 9000 ft
Overcast 11000 ft
Dew Point 58 °F
Humidity 91%
Rainfall 0.00 in
Snow Depth Not available.
6:21 AM 8:35 PM
Waxing Crescent, 30% visible
METAR KWDG 200935Z AUTO 25004KT 10SM -RA SCT027 SCT090 OVC110 17/16 A3003 RMK AO2 P0001

Get Severe Weather Alerts

Thanks for signing up!

Be on the lookout for a verification email in your inbox.

You'll start receiving the daily forecast at 6 AM.

×

10-Day Weather Forecast

Almanac

Astronomy

May. 20, 2018 Rise Set
Actual Time
Civil Twilight
Nautical Twilight
Astronomical Twilight
Moon
Length of Visible Light
Length of Day
Tomorrow will be .
, % of the Moon is Illuminated

Today's Extremes

State Highs State Lows

Community

WunderPhotos

Category 6

Welcome to Category 6. This is the collective home for Weather Underground's featured writeups by Dr. Jeff Masters (right), Bob Henson (left), Chris Burt, and other regular contributors.

Nearby

Air Quality

  Air Quality AQ Index Pollutant
Not available.

Snow Depth

Station Depth Elevation

Earthquake Activity

City Distance Mag. Time & Date
Minimum magnitude displayed is 2.5.

Coastal Water Temperatures

Place Temperature

Stations

Nearby Weather Stations

Station Location Temp. Windchill Dew Point Humidity Wind Precip. Elev Updated Type
                   

Watches & Warnings

There are currently no watches in effect.